Time;durP1;ratioP1;P1;durP2;ratioP2;P2;SDS_P1;SDS_P2;PMS_P1;PMS_P2;Temp;Humidity;BMP_temperature;BMP_pressure;BME280_temperature;BME280_humidity;BME280_pressure;Samples;Min_cycle;Max_cycle;Signal;HPM_P1;HPM_P2
2023/05/24 00:00:27;;;;;;;3.20;2.93;;;;;;;-145.94;53.39;77983.22;5113670;28;20233;-70
2023/05/24 00:02:56;;;;;;;4.17;3.50;;;;;;;-145.94;53.54;77985.28;5113853;28;20201;-69
2023/05/24 00:05:23;;;;;;;3.03;2.90;;;;;;;-145.94;53.56;77983.22;5114637;28;20189;-69
2023/05/24 00:07:49;;;;;;;3.77;3.20;;;;;;;-145.94;53.69;77981.19;5117988;28;20209;-69
2023/05/24 00:10:16;;;;;;;5.67;3.77;;;;;;;-145.94;53.65;77985.28;5117753;28;20177;-69
2023/05/24 00:12:42;;;;;;;9.97;3.70;;;;;;;-145.94;53.54;77987.31;5118060;28;20234;-69
2023/05/24 00:15:09;;;;;;;4.90;3.67;;;;;;;-145.94;53.31;77983.22;5118090;28;20231;-69
2023/05/24 00:17:39;;;;;;;8.30;3.90;;;;;;;-145.94;53.43;77979.16;5117643;28;20266;-69
2023/05/24 00:20:09;;;;;;;6.30;2.73;;;;;;;-145.94;53.64;77981.19;5117950;28;20177;-69
2023/05/24 00:22:36;;;;;;;3.73;2.70;;;;;;;-145.94;53.67;77983.22;5117768;28;20205;-69
2023/05/24 00:25:04;;;;;;;3.73;3.60;;;;;;;-145.94;54.10;77981.19;5117565;28;20189;-69
2023/05/24 00:27:30;;;;;;;3.50;3.20;;;;;;;-145.94;54.08;77989.34;5099111;28;20277;-69
2023/05/24 00:29:58;;;;;;;3.33;3.13;;;;;;;-145.94;53.98;77989.34;5117748;28;20196;-69
2023/05/24 00:32:26;;;;;;;3.77;3.17;;;;;;;-145.94;54.14;77993.44;5099390;28;20231;-69
2023/05/24 00:34:52;;;;;;;11.23;3.87;;;;;;;-145.94;54.00;77987.31;5099096;28;20189;-69
2023/05/24 00:37:18;;;;;;;9.47;3.23;;;;;;;-145.94;54.17;77991.38;5099289;28;20562;-69
2023/05/24 00:39:45;;;;;;;3.50;2.90;;;;;;;-145.94;54.34;78001.59;5117304;28;20246;-69
2023/05/24 00:42:11;;;;;;;5.93;3.80;;;;;;;-145.94;54.47;78007.69;5117593;28;20254;-69
2023/05/24 00:44:38;;;;;;;2.60;2.50;;;;;;;-145.94;54.65;78009.75;5117625;28;20181;-69
2023/05/24 00:47:04;;;;;;;3.10;2.30;;;;;;;-145.94;55.08;78019.94;5117373;28;20230;-69
2023/05/24 00:49:33;;;;;;;4.73;3.70;;;;;;;-145.94;54.84;78026.06;5117445;28;20207;-69
2023/05/24 00:52:00;;;;;;;3.63;3.30;;;;;;;-145.94;54.92;78028.09;5098892;28;20242;-69
2023/05/24 00:54:28;;;;;;;7.93;3.57;;;;;;;-145.94;55.23;78038.31;5098797;28;20190;-69
2023/05/24 00:56:55;;;;;;;3.27;3.03;;;;;;;-145.94;55.30;78050.53;5116944;28;20185;-69
2023/05/24 00:59:25;;;;;;;2.73;2.57;;;;;;;-145.94;55.51;78050.53;5098679;28;20564;-69
2023/05/24 01:01:54;;;;;;;5.77;3.60;;;;;;;-145.94;55.78;78052.59;5117145;28;20237;-69
2023/05/24 01:04:21;;;;;;;7.80;3.47;;;;;;;-145.94;55.64;78050.53;5098812;28;20194;-69
2023/05/24 01:07:06;;;;;;;5.00;4.23;;;;;;;-145.94;55.91;78056.66;5098419;28;20189;-69
2023/05/24 01:09:44;;;;;;;3.43;3.13;;;;;;;-145.94;56.02;78058.69;5117323;28;20234;-69
2023/05/24 01:12:25;;;;;;;3.67;3.40;;;;;;;-145.94;55.85;78066.84;5116723;28;20520;-69
2023/05/24 01:15:04;;;;;;;3.40;3.30;;;;;;;-145.94;56.31;78068.91;5116965;28;20173;-69
2023/05/24 01:17:47;;;;;;;4.57;3.40;;;;;;;-145.94;56.42;78079.09;5096901;28;20579;-69
2023/05/24 01:20:16;;;;;;;4.57;4.27;;;;;;;-145.94;56.63;78083.19;5117123;28;20178;-69
2023/05/24 01:23:03;;;;;;;5.20;3.57;;;;;;;-145.94;56.79;78087.25;5098167;28;20668;-69
2023/05/24 01:25:59;;;;;;;4.90;4.23;;;;;;;-145.94;56.55;78103.56;5116673;28;20177;-69
2023/05/24 01:28:26;;;;;;;4.67;4.30;;;;;;;-145.94;56.48;78105.63;5116444;28;20200;-69
2023/05/24 01:30:54;;;;;;;6.93;4.20;;;;;;;-145.94;56.95;78105.63;5116356;28;20262;-69
2023/05/24 01:33:22;;;;;;;4.67;4.27;;;;;;;-145.94;57.17;78119.91;5098010;28;20181;-69
2023/05/24 01:35:48;;;;;;;4.33;3.53;;;;;;;-145.94;57.29;78128.06;5116295;28;20189;-69
2023/05/24 01:38:15;;;;;;;4.87;3.60;;;;;;;-145.94;57.68;78121.94;5097846;28;20216;-69
2023/05/24 01:40:42;;;;;;;6.37;3.57;;;;;;;-145.94;57.67;78119.91;5097893;28;20186;-69
2023/05/24 01:43:30;;;;;;;4.13;3.77;;;;;;;-145.94;57.72;78111.72;5115995;28;20216;-69
2023/05/24 01:46:08;;;;;;;5.17;3.40;;;;;;;-145.94;57.97;78115.81;5097800;28;20569;-69
2023/05/24 01:49:08;;;;;;;3.43;3.33;;;;;;;-145.94;58.37;78113.78;5115951;28;20642;-69
2023/05/24 01:51:43;;;;;;;6.73;3.93;;;;;;;-145.94;58.37;78126.00;5115944;28;20184;-69
2023/05/24 01:54:12;;;;;;;3.73;2.87;;;;;;;-145.94;58.65;78119.91;5097593;28;20636;-69
2023/05/24 01:56:40;;;;;;;4.70;3.37;;;;;;;-145.94;58.44;78126.00;5115886;28;20580;-69
2023/05/24 01:59:08;;;;;;;3.87;2.80;;;;;;;-145.94;58.55;78123.97;5115761;28;20200;-69
2023/05/24 02:01:34;;;;;;;8.20;3.37;;;;;;;-145.94;58.48;78128.06;5097416;28;20258;-69
2023/05/24 02:04:01;;;;;;;3.60;3.40;;;;;;;-145.94;58.44;78128.06;5097396;28;20242;-69
2023/05/24 02:06:28;;;;;;;4.43;3.97;;;;;;;-145.94;58.53;78136.22;5116478;28;20215;-69
2023/05/24 02:08:54;;;;;;;3.83;3.53;;;;;;;-145.94;58.37;78144.38;5115673;28;20572;-69
2023/05/24 02:11:21;;;;;;;9.77;4.23;;;;;;;-145.94;58.91;78152.53;5115509;28;20219;-69
2023/05/24 02:13:48;;;;;;;3.93;3.50;;;;;;;-145.94;59.09;78166.81;5097219;28;20192;-69
2023/05/24 02:16:14;;;;;;;5.03;3.60;;;;;;;-145.94;59.34;78168.84;5115718;28;20542;-69
2023/05/24 02:18:45;;;;;;;3.57;3.37;;;;;;;-145.94;59.40;78170.88;5097014;28;20240;-69
2023/05/24 02:21:12;;;;;;;3.63;3.33;;;;;;;-145.94;59.64;78181.09;5097106;28;20560;-69
2023/05/24 02:23:39;;;;;;;3.50;3.20;;;;;;;-145.94;59.62;78189.25;5096962;28;20295;-69
2023/05/24 02:26:05;;;;;;;3.40;3.07;;;;;;;-145.94;59.69;78187.22;5115234;28;20238;-69
2023/05/24 02:28:31;;;;;;;4.30;4.10;;;;;;;-145.94;60.06;78183.13;5114719;28;20217;-69
2023/05/24 02:30:58;;;;;;;4.40;4.10;;;;;;;-145.94;59.88;78183.13;5096900;28;20200;-69
2023/05/24 02:33:24;;;;;;;5.77;4.83;;;;;;;-145.94;60.13;78191.28;5096830;28;20198;-70
2023/05/24 02:35:51;;;;;;;3.87;3.77;;;;;;;-145.94;60.21;78193.31;5115372;28;20177;-69
2023/05/24 02:38:17;;;;;;;3.80;3.70;;;;;;;-145.94;59.97;78195.38;5114904;28;20293;-69
2023/05/24 02:40:44;;;;;;;8.73;4.20;;;;;;;-145.94;59.92;78217.81;5115208;28;20586;-69
2023/05/24 02:43:10;;;;;;;4.40;4.20;;;;;;;-145.94;60.01;78225.97;5096601;28;20214;-69
2023/05/24 02:45:37;;;;;;;4.33;4.00;;;;;;;-145.94;60.54;78242.28;5114819;28;20188;-69
2023/05/24 02:48:03;;;;;;;5.07;4.50;;;;;;;-145.94;60.64;78264.72;5096446;28;20695;-69
2023/05/24 02:50:30;;;;;;;5.57;4.27;;;;;;;-145.94;60.82;78270.84;5096470;28;20197;-69
2023/05/24 02:52:56;;;;;;;7.00;4.43;;;;;;;-145.94;61.40;78287.16;5114670;28;20212;-69
2023/05/24 02:55:23;;;;;;;4.97;4.60;;;;;;;-145.94;61.58;78291.25;5096389;28;20189;-69
2023/05/24 02:57:50;;;;;;;5.07;4.67;;;;;;;-145.94;61.73;78293.28;5096551;28;20223;-69
2023/05/24 03:00:17;;;;;;;5.43;5.00;;;;;;;-145.94;61.92;78295.31;5096510;28;20197;-69
2023/05/24 03:02:46;;;;;;;3.87;3.67;;;;;;;-145.94;61.93;78291.25;5096209;28;20625;-69
2023/05/24 03:05:13;;;;;;;3.93;3.53;;;;;;;-145.94;62.17;78293.28;5114482;28;20211;-69
2023/05/24 03:07:40;;;;;;;5.67;4.50;;;;;;;-145.94;62.34;78285.13;5096149;28;20209;-69
2023/05/24 03:10:06;;;;;;;5.17;4.70;;;;;;;-145.94;62.45;78287.16;5096756;28;20584;-69
2023/05/24 03:12:33;;;;;;;6.27;4.87;;;;;;;-145.94;62.58;78279.00;5114325;28;20260;-69
2023/05/24 03:14:59;;;;;;;4.93;4.53;;;;;;;-145.94;62.69;78274.94;5114296;28;20189;-69
2023/05/24 03:17:26;;;;;;;7.60;5.50;;;;;;;-145.94;62.66;78270.84;5095997;28;20589;-69
2023/05/24 03:19:52;;;;;;;5.93;5.33;;;;;;;-145.94;62.83;78270.84;5095944;28;20283;-69
2023/05/24 03:22:19;;;;;;;5.07;4.40;;;;;;;-145.94;63.00;78260.66;5114394;28;20284;-69
2023/05/24 03:24:47;;;;;;;5.80;4.37;;;;;;;-145.94;63.01;78260.66;5095916;28;20193;-69
2023/05/24 03:27:14;;;;;;;7.33;5.07;;;;;;;-145.94;62.90;78258.59;5095679;28;20209;-68
2023/05/24 03:29:40;;;;;;;9.67;4.53;;;;;;;-145.94;63.07;78250.44;5096479;28;20187;-69
2023/05/24 03:32:07;;;;;;;4.90;4.57;;;;;;;-145.94;63.13;78258.59;5096074;28;20655;-69
2023/05/24 03:34:33;;;;;;;5.03;4.70;;;;;;;-145.94;63.15;78260.66;5095750;28;20189;-69
2023/05/24 03:37:00;;;;;;;9.50;4.50;;;;;;;-145.94;63.09;78254.53;5095943;28;20196;-70
2023/05/24 03:39:27;;;;;;;8.63;5.20;;;;;;;-145.94;63.11;78260.66;5113717;28;20177;-69
2023/05/24 03:41:59;;;;;;;6.03;4.17;;;;;;;-145.94;63.11;78266.75;5095490;28;20248;-69
2023/05/24 03:44:26;;;;;;;6.23;4.63;;;;;;;-145.94;63.22;78272.88;5095636;28;20196;-69
2023/05/24 03:46:53;;;;;;;5.70;5.33;;;;;;;-145.94;63.27;78272.88;5095467;28;20237;-69
2023/05/24 03:49:19;;;;;;;5.07;4.77;;;;;;;-145.94;63.13;78279.00;5113848;28;20250;-69
2023/05/24 03:51:45;;;;;;;4.97;4.77;;;;;;;-145.94;63.24;78274.94;5095959;28;20199;-69
2023/05/24 03:54:12;;;;;;;4.67;4.40;;;;;;;-145.94;63.09;78272.88;5115470;28;20227;-69
2023/05/24 03:56:40;;;;;;;7.17;4.67;;;;;;;-145.94;62.94;78266.75;5096668;28;20190;-69
2023/05/24 03:59:07;;;;;;;5.33;4.83;;;;;;;-145.94;63.10;78270.84;5095648;28;20258;-69
2023/05/24 04:01:35;;;;;;;5.53;4.87;;;;;;;-145.94;63.23;78266.75;5095911;28;20199;-69
2023/05/24 04:04:02;;;;;;;5.83;5.23;;;;;;;-145.94;63.05;78276.97;5114953;28;20205;-69
2023/05/24 04:06:29;;;;;;;9.00;5.93;;;;;;;-145.94;63.03;78279.00;5096290;28;20216;-69
2023/05/24 04:08:58;;;;;;;7.70;4.97;;;;;;;-145.94;63.02;78274.94;5096054;28;20211;-68
2023/05/24 04:11:27;;;;;;;5.33;4.77;;;;;;;-145.94;63.06;78274.94;5096404;28;20200;-69
2023/05/24 04:13:56;;;;;;;5.43;5.13;;;;;;;-145.94;63.02;78276.97;5114623;28;20191;-69
2023/05/24 04:16:23;;;;;;;5.13;4.77;;;;;;;-145.94;63.16;78283.09;5096041;28;20195;-69
2023/05/24 04:18:50;;;;;;;9.53;4.70;;;;;;;-145.94;63.06;78283.09;5114074;28;20262;-69
2023/05/24 04:21:16;;;;;;;5.40;4.07;;;;;;;-145.94;63.46;78283.09;5095628;28;20672;-69
2023/05/24 04:23:43;;;;;;;8.77;5.73;;;;;;;-145.94;63.33;78281.03;5095617;28;20208;-69
2023/05/24 04:26:09;;;;;;;11.07;6.03;;;;;;;-145.94;63.30;78276.97;5096477;28;20665;-69
2023/05/24 04:28:39;;;;;;;5.23;4.83;;;;;;;-145.94;63.30;78268.81;5096500;28;20320;-69
2023/05/24 04:31:08;;;;;;;5.40;4.77;;;;;;;-145.94;63.44;78264.72;5095713;28;20198;-69
2023/05/24 04:33:35;;;;;;;8.90;5.57;;;;;;;-145.94;63.35;78264.72;5095784;28;20670;-69
2023/05/24 04:36:02;;;;;;;11.70;5.83;;;;;;;-145.94;63.62;78252.47;5114140;28;20200;-69
2023/05/24 04:38:31;;;;;;;4.57;4.30;;;;;;;-145.94;63.63;78248.41;5096132;28;20691;-69
2023/05/24 04:40:58;;;;;;;5.33;4.93;;;;;;;-145.94;63.71;78242.28;5114163;28;20182;-69
2023/05/24 04:43:27;;;;;;;11.20;6.37;;;;;;;-145.94;63.79;78232.09;5114075;28;20205;-69
2023/05/24 04:45:54;;;;;;;7.67;6.17;;;;;;;-145.94;64.06;78221.88;5114060;28;20177;-69
2023/05/24 04:48:23;;;;;;;8.33;4.90;;;;;;;-145.94;63.86;78219.84;5113764;28;20227;-69
2023/05/24 04:50:51;;;;;;;11.93;7.13;;;;;;;-145.94;64.03;78207.59;5114872;28;20563;-69
2023/05/24 04:53:18;;;;;;;9.20;5.20;;;;;;;-145.94;64.12;78197.41;5117400;28;20186;-69
2023/05/24 04:55:45;;;;;;;7.23;5.30;;;;;;;-145.94;64.25;78195.38;5117007;28;20187;-69
2023/05/24 04:58:12;;;;;;;6.53;5.93;;;;;;;-145.94;64.15;78179.06;5117224;28;20200;-69
2023/05/24 05:00:39;;;;;;;12.20;6.53;;;;;;;-145.94;64.00;78170.88;5117174;28;20198;-69
2023/05/24 05:03:07;;;;;;;8.57;6.17;;;;;;;-145.94;64.20;78172.94;5117354;28;20674;-69
2023/05/24 05:05:33;;;;;;;11.40;6.60;;;;;;;-145.94;63.93;78170.88;5116814;28;20205;-69
2023/05/24 05:08:01;;;;;;;19.07;7.43;;;;;;;-145.94;64.06;78156.59;5116614;28;20219;-69
2023/05/24 05:10:27;;;;;;;13.60;5.97;;;;;;;-145.94;63.99;78156.59;5116720;28;20185;-69
2023/05/24 05:12:54;;;;;;;17.63;7.07;;;;;;;-145.94;64.05;78152.53;5116960;28;20203;-69
2023/05/24 05:15:22;;;;;;;13.60;7.10;;;;;;;-145.94;64.23;78140.28;5117153;28;20185;-69
2023/05/24 05:17:49;;;;;;;17.77;6.93;;;;;;;-145.94;64.08;78132.13;5116629;28;20743;-69
2023/05/24 05:20:15;;;;;;;17.40;7.37;;;;;;;-145.94;64.32;78115.81;5116747;28;20272;-69
2023/05/24 05:22:48;;;;;;;16.77;7.47;;;;;;;-145.94;64.19;78109.69;5116932;28;20213;-69
2023/05/24 05:25:15;;;;;;;8.97;6.53;;;;;;;-145.94;64.12;78109.69;5116455;28;20259;-69
2023/05/24 05:27:42;;;;;;;15.80;6.47;;;;;;;-145.94;63.89;78113.78;5116360;28;20220;-69
2023/05/24 05:30:09;;;;;;;15.83;6.90;;;;;;;-145.94;63.73;78109.69;5116602;28;20700;-69
2023/05/24 05:32:37;;;;;;;24.87;7.53;;;;;;;-145.94;64.05;78109.69;5098004;28;20224;-69
2023/05/24 05:35:04;;;;;;;18.03;8.17;;;;;;;-145.94;63.90;78097.47;5116459;28;20221;-69
2023/05/24 05:37:31;;;;;;;20.40;7.87;;;;;;;-145.94;63.92;78077.06;5116613;28;20689;-69
2023/05/24 05:39:57;;;;;;;8.30;6.40;;;;;;;-145.94;63.84;78062.78;5116371;28;20185;-69
2023/05/24 05:42:23;;;;;;;17.37;7.70;;;;;;;-145.94;63.69;78056.66;5115975;28;20191;-69
2023/05/24 05:44:51;;;;;;;12.37;6.97;;;;;;;-145.94;64.11;78036.25;5116034;28;20592;-69
2023/05/24 05:47:18;;;;;;;13.27;7.73;;;;;;;-145.94;63.81;78032.19;5116151;28;20578;-69
2023/05/24 05:49:44;;;;;;;17.27;7.87;;;;;;;-145.94;63.81;78021.97;5115960;28;20182;-69
2023/05/24 05:52:10;;;;;;;17.90;7.17;;;;;;;-145.94;63.70;78017.91;5115920;28;20182;-68
2023/05/24 05:54:37;;;;;;;16.37;6.97;;;;;;;-145.94;63.44;78017.91;5115769;28;20658;-68
2023/05/24 05:57:04;;;;;;;21.33;7.57;;;;;;;-145.94;63.57;78007.69;5116119;28;20185;-68
2023/05/24 05:59:34;;;;;;;11.80;6.23;;;;;;;-145.94;62.94;78005.66;5115781;28;20543;-69
2023/05/24 06:02:02;;;;;;;11.63;6.33;;;;;;;-145.94;63.14;77989.34;5116287;28;20234;-69
2023/05/24 06:04:28;;;;;;;22.47;6.97;;;;;;;-145.94;62.90;77981.19;5115087;28;20216;-69
2023/05/24 06:06:55;;;;;;;7.03;6.33;;;;;;;-145.94;62.47;77973.03;5115528;28;20192;-69
2023/05/24 06:09:22;;;;;;;12.60;6.53;;;;;;;-145.94;62.28;77968.94;5116073;28;20196;-69
2023/05/24 06:11:48;;;;;;;13.50;7.13;;;;;;;-145.94;62.15;77954.66;5115689;28;20193;-69
2023/05/24 06:14:20;;;;;;;15.17;6.37;;;;;;;-145.94;62.21;77940.41;5097411;28;20185;-69
2023/05/24 06:16:47;;;;;;;12.10;6.40;;;;;;;-145.94;62.05;77926.13;5115695;28;20184;-69
2023/05/24 06:19:14;;;;;;;19.17;7.30;;;;;;;-145.94;61.85;77915.91;5115591;28;20258;-69
2023/05/24 06:21:46;;;;;;;11.17;6.80;;;;;;;-145.94;62.17;77905.72;5115592;28;20627;-69
2023/05/24 06:24:14;;;;;;;19.93;6.43;;;;;;;-145.94;62.04;77881.25;5115562;28;20273;-70
2023/05/24 06:26:40;;;;;;;27.97;6.53;;;;;;;-145.94;61.86;77877.16;5115479;28;20185;-69
2023/05/24 06:29:08;;;;;;;21.53;6.47;;;;;;;-145.94;61.40;77871.03;5115554;28;20205;-69
2023/05/24 06:31:34;;;;;;;21.17;6.90;;;;;;;-145.94;61.19;77862.88;5115645;28;20554;-69
2023/05/24 06:34:01;;;;;;;20.97;6.43;;;;;;;-145.94;61.42;77850.66;5096761;28;20185;-69
2023/05/24 06:36:34;;;;;;;16.63;7.17;;;;;;;-145.94;61.04;77836.38;5115237;28;20276;-69
2023/05/24 06:39:01;;;;;;;11.50;6.23;;;;;;;-145.94;60.72;77818.00;5114963;28;20205;-69
2023/05/24 06:41:28;;;;;;;15.87;6.73;;;;;;;-145.94;60.48;77793.53;5115173;28;20196;-69
2023/05/24 06:43:54;;;;;;;16.70;6.80;;;;;;;-145.94;60.41;77777.22;5114849;28;20201;-69
2023/05/24 06:46:21;;;;;;;21.63;6.33;;;;;;;-145.94;59.86;77762.94;5115134;28;20542;-70
2023/05/24 06:48:47;;;;;;;13.03;5.60;;;;;;;-145.94;58.06;77764.97;5114722;28;20725;-70
2023/05/24 06:51:14;;;;;;;23.57;5.80;;;;;;;-145.94;58.58;77767.00;5115306;28;20666;-70
2023/05/24 06:53:40;;;;;;;15.80;5.20;;;;;;;-145.94;58.79;77762.94;5114992;28;20228;-70
2023/05/24 06:56:08;;;;;;;21.33;5.77;;;;;;;-145.94;58.69;77760.91;5114653;28;20185;-71
2023/05/24 06:58:35;;;;;;;17.13;6.70;;;;;;;-145.94;57.90;77764.97;5114829;28;20575;-69
2023/05/24 07:01:03;;;;;;;15.80;5.87;;;;;;;-145.94;58.32;77769.06;5114796;28;20578;-69
2023/05/24 07:03:31;;;;;;;9.57;4.67;;;;;;;-145.94;57.88;77762.94;5114668;28;20201;-70
2023/05/24 07:05:57;;;;;;;16.20;5.20;;;;;;;-145.94;58.90;77746.63;5114927;28;20192;-70
2023/05/24 07:08:24;;;;;;;26.50;5.93;;;;;;;-145.94;58.62;77730.31;5114585;28;20216;-70
2023/05/24 07:10:52;;;;;;;16.07;6.73;;;;;;;-145.94;58.19;77722.16;5114682;28;20185;-69
2023/05/24 07:13:18;;;;;;;14.07;5.50;;;;;;;-145.94;57.78;77722.16;5114326;28;20189;-70
2023/05/24 07:15:45;;;;;;;21.60;5.57;;;;;;;-145.94;57.65;77703.78;5114293;28;20185;-69
2023/05/24 07:18:13;;;;;;;14.90;4.67;;;;;;;-145.94;57.85;77707.88;5114176;28;20201;-71
2023/05/24 07:20:39;;;;;;;8.83;4.30;;;;;;;-145.94;57.07;77709.91;5114170;28;20534;-69
2023/05/24 07:23:06;;;;;;;12.50;6.00;;;;;;;-145.94;57.54;77699.72;5114342;28;20697;-70
2023/05/24 07:25:33;;;;;;;18.03;6.07;;;;;;;-145.94;57.80;77701.75;5114145;28;20557;-70
2023/05/24 07:28:00;;;;;;;11.90;5.90;;;;;;;-145.94;57.60;77687.47;5114027;28;20216;-70
2023/05/24 07:30:27;;;;;;;8.73;4.53;;;;;;;-145.94;58.05;77691.56;5114617;28;20193;-70
2023/05/24 07:33:00;;;;;;;10.93;5.70;;;;;;;-145.94;56.99;77726.22;5114588;28;20187;-70
2023/05/24 07:35:28;;;;;;;19.13;5.10;;;;;;;-145.94;57.73;77728.25;5113974;28;20220;-70
2023/05/24 07:37:55;;;;;;;11.40;4.87;;;;;;;-145.94;56.89;77734.38;5114625;28;20254;-70
2023/05/24 07:40:21;;;;;;;20.00;5.23;;;;;;;-145.94;57.39;77734.38;5113910;28;20208;-70
2023/05/24 07:42:48;;;;;;;13.90;4.93;;;;;;;-145.94;57.50;77738.47;5114060;28;20596;-70
2023/05/24 07:45:15;;;;;;;18.53;5.17;;;;;;;-145.94;57.53;77736.44;5114487;28;20522;-69
2023/05/24 07:47:41;;;;;;;14.13;5.43;;;;;;;-145.94;57.37;77744.59;5113762;28;20216;-70
2023/05/24 07:50:09;;;;;;;25.20;5.23;;;;;;;-145.94;57.33;77750.69;5113759;28;20189;-70
2023/05/24 07:52:37;;;;;;;16.20;5.27;;;;;;;-145.94;57.79;77734.38;5114625;28;20180;-70
2023/05/24 07:55:05;;;;;;;24.83;6.20;;;;;;;-145.94;57.46;77726.22;5113759;28;20173;-70
2023/05/24 07:57:32;;;;;;;26.50;6.27;;;;;;;-145.94;58.55;77705.81;5113572;28;20204;-70
2023/05/24 08:00:04;;;;;;;8.43;4.87;;;;;;;-145.94;57.15;77703.78;5113648;28;20192;-70
2023/05/24 08:02:37;;;;;;;10.63;6.07;;;;;;;-145.94;57.69;77711.94;5113938;28;20207;-71
2023/05/24 08:05:04;;;;;;;9.57;5.20;;;;;;;-145.94;57.22;77707.88;5113505;28;20209;-70
2023/05/24 08:07:30;;;;;;;16.03;5.97;;;;;;;-145.94;56.02;77718.06;5114214;28;20616;-69
2023/05/24 08:09:57;;;;;;;18.77;5.37;;;;;;;-145.94;55.88;77707.88;5113882;28;20597;-69
2023/05/24 08:12:24;;;;;;;12.23;5.13;;;;;;;-145.94;56.43;77714.00;5113624;28;20173;-70
2023/05/24 08:14:51;;;;;;;16.47;5.37;;;;;;;-145.94;56.53;77709.91;5113549;28;20230;-70
2023/05/24 08:17:17;;;;;;;9.13;4.97;;;;;;;-145.94;55.92;77707.88;5113606;28;20220;-70
2023/05/24 08:19:44;;;;;;;18.27;6.80;;;;;;;-145.94;54.65;77711.94;5113818;28;20189;-70
2023/05/24 08:22:11;;;;;;;7.70;5.13;;;;;;;-145.94;55.17;77701.75;5113398;28;20262;-70
2023/05/24 08:24:38;;;;;;;16.50;5.50;;;;;;;-145.94;54.93;77693.59;5113657;28;20201;-70
2023/05/24 08:27:04;;;;;;;9.17;4.90;;;;;;;-145.94;55.31;77687.47;5115198;28;20185;-69
2023/05/24 08:29:31;;;;;;;11.30;5.13;;;;;;;-145.94;54.88;77679.31;5117533;28;20563;-70
2023/05/24 08:31:58;;;;;;;11.60;5.27;;;;;;;-145.94;54.05;77675.22;5117466;28;20666;-69
2023/05/24 08:34:25;;;;;;;10.83;5.30;;;;;;;-145.94;54.87;77667.06;5117442;28;20188;-70
2023/05/24 08:36:52;;;;;;;19.30;5.73;;;;;;;-145.94;54.75;77654.84;5117313;28;20215;-70
2023/05/24 08:39:19;;;;;;;16.23;5.27;;;;;;;-145.94;55.87;77642.59;5117285;28;20185;-70
2023/05/24 08:41:45;;;;;;;8.03;4.93;;;;;;;-145.94;55.45;77638.53;5117331;28;20200;-69
2023/05/24 08:44:40;;;;;;;15.17;5.00;;;;;;;-145.94;53.72;77630.38;5117748;28;20246;-70
2023/05/24 08:47:08;;;;;;;21.30;4.63;;;;;;;-145.94;53.29;77630.38;5117154;28;20183;-69
2023/05/24 08:49:36;;;;;;;15.83;5.70;;;;;;;-145.94;52.97;77618.13;5117993;28;20196;-70
2023/05/24 08:52:06;;;;;;;9.33;4.50;;;;;;;-145.94;52.88;77593.66;5117663;28;20185;-69
2023/05/24 08:54:36;;;;;;;9.60;4.07;;;;;;;-145.94;52.34;77585.50;5117313;28;20173;-69
2023/05/24 08:57:03;;;;;;;19.77;5.27;;;;;;;-145.94;51.15;77581.41;5116908;28;20185;-69
2023/05/24 08:59:29;;;;;;;14.27;4.57;;;;;;;-145.94;52.05;77575.28;5117016;28;20188;-69
2023/05/24 09:01:56;;;;;;;8.90;4.57;;;;;;;-145.94;51.95;77569.19;5117272;28;20176;-70
2023/05/24 09:04:25;;;;;;;10.97;5.07;;;;;;;-145.94;50.97;77565.09;5116771;28;20205;-70
2023/05/24 09:06:53;;;;;;;9.33;4.03;;;;;;;-145.94;50.97;77561.03;5117324;28;20268;-70
2023/05/24 09:09:21;;;;;;;9.90;4.87;;;;;;;-145.94;50.75;77554.91;5116716;28;20200;-70
2023/05/24 09:11:50;;;;;;;10.73;5.20;;;;;;;-145.94;50.96;77556.94;5116737;28;20185;-70
2023/05/24 09:14:17;;;;;;;4.73;4.30;;;;;;;-145.94;50.62;77554.91;5116972;28;20181;-69
2023/05/24 09:16:44;;;;;;;5.47;4.47;;;;;;;-145.94;50.46;77554.91;5116623;28;20192;-70
2023/05/24 09:19:11;;;;;;;9.90;4.70;;;;;;;-145.94;50.48;77548.78;5116517;28;20205;-70
2023/05/24 09:21:37;;;;;;;5.30;4.13;;;;;;;-145.94;50.13;77542.66;5117092;28;20196;-70
2023/05/24 09:24:07;;;;;;;12.37;3.87;;;;;;;-145.94;50.00;77540.63;5116423;28;20207;-70
2023/05/24 09:26:35;;;;;;;5.67;3.83;;;;;;;-145.94;50.58;77528.38;5116421;28;20185;-70
2023/05/24 09:29:06;;;;;;;10.70;5.60;;;;;;;-145.94;49.85;77534.50;5116249;28;20208;-70
2023/05/24 09:31:34;;;;;;;7.27;4.90;;;;;;;-145.94;50.68;77532.47;5116647;28;20170;-70
2023/05/24 09:34:02;;;;;;;12.57;4.60;;;;;;;-145.94;49.94;77536.53;5116275;28;20220;-70
2023/05/24 09:36:35;;;;;;;12.37;4.63;;;;;;;-145.94;50.16;77534.50;5117060;28;20185;-70
2023/05/24 09:39:08;;;;;;;4.40;4.00;;;;;;;-145.94;50.35;77524.31;5115017;28;20240;-69
2023/05/24 09:41:36;;;;;;;8.17;3.80;;;;;;;-145.94;50.69;77518.19;5116067;28;20181;-69
2023/05/24 09:44:02;;;;;;;10.43;4.20;;;;;;;-145.94;50.29;77508.00;5116485;28;20678;-70
2023/05/24 09:46:34;;;;;;;8.10;4.53;;;;;;;-145.94;50.18;77491.66;5116059;28;20605;-69
2023/05/24 09:49:02;;;;;;;5.20;4.00;;;;;;;-145.94;50.11;77483.50;5116486;28;20563;-69
2023/05/24 09:51:29;;;;;;;10.50;3.53;;;;;;;-145.94;49.99;77477.41;5116241;28;20200;-69
2023/05/24 09:53:57;;;;;;;6.37;3.77;;;;;;;-145.94;50.33;77475.34;5116317;28;20190;-70
2023/05/24 09:56:25;;;;;;;10.10;3.90;;;;;;;-145.94;49.81;77479.44;5115832;28;20242;-70
2023/05/24 09:58:53;;;;;;;11.73;3.73;;;;;;;-145.94;49.42;77479.44;5115998;28;20209;-70
2023/05/24 10:01:24;;;;;;;8.90;4.93;;;;;;;-145.94;49.10;77497.78;5116341;28;20189;-70
2023/05/24 10:03:56;;;;;;;14.33;5.07;;;;;;;-145.94;50.00;77501.88;5116092;28;20197;-70
2023/05/24 10:06:23;;;;;;;6.13;4.33;;;;;;;-145.94;50.32;77499.84;5115824;28;20205;-69
2023/05/24 10:08:51;;;;;;;6.93;4.07;;;;;;;-145.94;50.22;77499.84;5115666;28;20213;-70
2023/05/24 10:11:17;;;;;;;11.07;5.20;;;;;;;-145.94;50.57;77491.66;5114837;28;20425;-70
2023/05/24 10:13:44;;;;;;;15.67;4.67;;;;;;;-145.94;49.83;77479.44;5115940;28;20169;-70
2023/05/24 10:16:11;;;;;;;8.87;4.50;;;;;;;-145.94;49.65;77489.63;5115783;28;20246;-70
2023/05/24 10:18:38;;;;;;;10.30;5.00;;;;;;;-145.94;49.02;77487.59;5115776;28;20243;-70
2023/05/24 10:21:08;;;;;;;5.17;4.60;;;;;;;-145.94;49.13;77499.84;5115340;28;20587;-71
2023/05/24 10:23:42;;;;;;;5.30;4.10;;;;;;;-145.94;49.82;77512.06;5115877;28;20212;-69
2023/05/24 10:26:11;;;;;;;4.90;4.57;;;;;;;-145.94;49.43;77518.19;5116134;28;20572;-69
2023/05/24 10:28:43;;;;;;;5.07;4.47;;;;;;;-145.94;49.19;77518.19;5115048;28;20213;-69
2023/05/24 10:31:14;;;;;;;4.40;4.07;;;;;;;-145.94;49.28;77516.16;5115932;28;20182;-70
2023/05/24 10:33:43;;;;;;;13.10;4.77;;;;;;;-145.94;49.25;77518.19;5115677;28;20174;-70
2023/05/24 10:36:12;;;;;;;17.50;4.87;;;;;;;-145.94;49.47;77522.25;5115890;28;20196;-70
2023/05/24 10:38:39;;;;;;;10.33;4.97;;;;;;;-145.94;50.02;77526.34;5114965;28;20293;-69
2023/05/24 10:41:07;;;;;;;6.47;3.77;;;;;;;-145.94;49.64;77520.22;5115527;28;20185;-69
2023/05/24 10:43:35;;;;;;;6.67;3.77;;;;;;;-145.94;49.93;77514.09;5114859;28;20193;-69
2023/05/24 10:46:03;;;;;;;7.37;5.13;;;;;;;-145.94;50.17;77516.16;5115359;28;20192;-70
2023/05/24 10:48:59;;;;;;;12.80;4.07;;;;;;;-145.94;50.37;77510.03;5114911;28;20686;-70
2023/05/24 10:51:38;;;;;;;12.10;4.23;;;;;;;-145.94;50.21;77503.91;5108219;28;20201;-70
2023/05/24 10:54:12;;;;;;;9.60;5.20;;;;;;;-145.94;50.35;77499.84;5115088;28;20172;-70
2023/05/24 10:56:49;;;;;;;5.50;3.97;;;;;;;-145.94;50.37;77497.78;5115048;28;20180;-70
2023/05/24 10:59:27;;;;;;;7.33;4.77;;;;;;;-145.94;49.75;77483.50;5114802;28;20212;-70
2023/05/24 11:01:56;;;;;;;15.40;5.27;;;;;;;-145.94;49.46;77475.34;5114942;28;20173;-70
2023/05/24 11:04:22;;;;;;;11.33;4.70;;;;;;;-145.94;49.22;77473.31;5114440;28;20200;-70
2023/05/24 11:07:00;;;;;;;9.97;4.93;;;;;;;-145.94;48.64;77465.16;5114540;28;20192;-70
2023/05/24 11:09:26;;;;;;;5.13;4.60;;;;;;;-145.94;49.04;77457.00;5114973;28;20169;-70
2023/05/24 11:11:56;;;;;;;6.90;4.93;;;;;;;-145.94;48.29;77461.09;5114385;28;20192;-70
2023/05/24 11:14:26;;;;;;;5.70;4.50;;;;;;;-145.94;48.45;77446.81;5114359;28;20651;-70
2023/05/24 11:16:52;;;;;;;8.83;5.03;;;;;;;-145.94;48.02;77438.66;5114489;28;20183;-70
2023/05/24 11:19:27;;;;;;;6.63;4.97;;;;;;;-145.94;47.65;77434.56;5114174;28;20688;-70